createdAt,value
2018-09-10T00:00:01.429Z,101827.85
2018-09-10T00:02:30.173Z,101828.72
2018-09-10T00:04:58.962Z,101826.50
2018-09-10T00:07:27.706Z,101822.84
2018-09-10T00:09:56.488Z,101816.72
2018-09-10T00:12:25.409Z,101816.20
2018-09-10T00:14:54.215Z,101814.38
2018-09-10T00:17:23.212Z,101817.07
2018-09-10T00:19:52.209Z,101810.81
2018-09-10T00:22:20.934Z,101812.67
2018-09-10T00:24:49.667Z,101806.03
2018-09-10T00:27:18.370Z,101808.73
2018-09-10T00:29:47.095Z,101808.73
2018-09-10T00:32:15.815Z,101814.59
2018-09-10T00:34:44.557Z,101814.25
2018-09-10T00:37:13.275Z,101816.42
2018-09-10T00:39:42.014Z,101816.94
2018-09-10T00:42:10.747Z,101812.03
2018-09-10T00:44:39.491Z,101812.52
2018-09-10T00:47:08.218Z,101805.39
2018-09-10T00:49:37.067Z,101804.04
2018-09-10T00:52:05.800Z,101801.86
2018-09-10T00:54:34.544Z,101802.34
2018-09-10T00:57:03.388Z,101796.56
2018-09-10T00:59:32.171Z,101800.61
2018-09-10T01:02:00.866Z,101801.59
2018-09-10T01:04:29.633Z,101805.64
2018-09-10T01:06:58.414Z,101801.70
2018-09-10T01:09:27.214Z,101798.13
2018-09-10T01:11:56.003Z,101799.99
2018-09-10T01:14:24.711Z,101802.30
2018-09-10T01:16:53.561Z,101805.48
2018-09-10T01:19:22.259Z,101802.78
2018-09-10T01:21:51.035Z,101802.43
2018-09-10T01:24:19.731Z,101802.43
2018-09-10T01:26:48.444Z,101796.66
2018-09-10T01:29:17.286Z,101797.61
2018-09-10T01:31:46.020Z,101793.58
2018-09-10T01:34:19.858Z,101792.74
2018-09-10T01:36:48.566Z,101797.74
2018-09-10T01:39:17.324Z,101801.78
2018-09-10T01:41:46.070Z,101798.70
2018-09-10T01:44:14.845Z,101793.80
2018-09-10T01:46:43.566Z,101799.70
2018-09-10T01:49:12.318Z,101796.63
2018-09-10T01:51:41.340Z,101797.48
2018-09-10T01:54:10.110Z,101795.75
2018-09-10T01:56:38.844Z,101794.41
2018-09-10T01:59:07.602Z,101789.02
2018-09-10T02:01:36.310Z,101793.05
2018-09-10T02:04:05.107Z,101792.19
2018-09-10T02:06:33.825Z,101785.45
2018-09-10T02:09:02.695Z,101781.41
2018-09-10T02:11:31.542Z,101781.06
2018-09-10T02:14:00.252Z,101781.41
2018-09-10T02:16:29.032Z,101783.27
2018-09-10T02:18:57.722Z,101780.58
2018-09-10T02:21:26.491Z,101778.36
2018-09-10T02:23:55.193Z,101773.84
2018-09-10T02:26:23.890Z,101775.67
2018-09-10T02:28:52.622Z,101778.23
2018-09-10T02:31:21.376Z,101770.16
2018-09-10T02:33:50.115Z,101765.24
2018-09-10T02:36:18.936Z,101766.11
2018-09-10T02:38:48.213Z,101766.98
2018-09-10T02:41:16.973Z,101760.72
2018-09-10T02:43:45.761Z,101762.94
2018-09-10T02:46:14.693Z,101758.41
2018-09-10T02:48:44.320Z,101759.28
2018-09-10T02:51:12.979Z,101759.77
2018-09-10T02:53:41.677Z,101759.77
2018-09-10T02:56:10.456Z,101759.77
2018-09-10T02:58:39.335Z,101753.89
2018-09-10T03:01:08.058Z,101763.67
2018-09-10T03:03:36.926Z,101756.07
2018-09-10T03:06:05.873Z,101750.69
2018-09-10T03:08:34.605Z,101759.16
2018-09-10T03:11:03.355Z,101752.89
2018-09-10T03:13:32.046Z,101754.24
2018-09-10T03:16:00.825Z,101749.34
2018-09-10T03:18:29.532Z,101747.50
2018-09-10T03:20:58.284Z,101749.72
2018-09-10T03:23:27.009Z,101742.12
2018-09-10T03:25:55.768Z,101739.33
2018-09-10T03:28:24.487Z,101736.25
2018-09-10T03:30:53.265Z,101729.51
2018-09-10T03:33:22.089Z,101727.30
2018-09-10T03:35:50.769Z,101723.73
2018-09-10T03:38:19.539Z,101720.95
2018-09-10T03:40:48.729Z,101721.33
2018-09-10T03:43:17.487Z,101721.42
2018-09-10T03:45:46.204Z,101720.08
2018-09-10T03:48:14.881Z,101712.48
2018-09-10T03:50:43.649Z,101722.77
2018-09-10T03:53:12.430Z,101721.42
2018-09-10T03:55:41.157Z,101727.20
2018-09-10T03:58:10.218Z,101720.47
2018-09-10T04:00:38.950Z,101719.60
2018-09-10T04:03:07.666Z,101715.08
2018-09-10T04:05:36.426Z,101718.98
2018-09-10T04:08:05.479Z,101716.77
2018-09-10T04:10:34.524Z,101722.55
2018-09-10T04:13:03.361Z,101711.90
2018-09-10T04:15:32.416Z,101718.98
2018-09-10T04:18:01.194Z,101709.56
2018-09-10T04:20:29.909Z,101708.20
2018-09-10T04:22:58.849Z,101706.38
2018-09-10T04:25:27.591Z,101709.46
2018-09-10T04:27:56.337Z,101700.03
2018-09-10T04:30:25.405Z,101698.16
2018-09-10T04:32:54.338Z,101698.16
2018-09-10T04:35:23.391Z,101699.41
2018-09-10T04:37:52.277Z,101697.59
2018-09-10T04:40:21.047Z,101695.24
2018-09-10T04:42:49.966Z,101696.24
2018-09-10T04:45:18.670Z,101692.55
2018-09-10T04:47:47.401Z,101687.55
2018-09-10T04:50:16.145Z,101683.85
2018-09-10T04:52:44.868Z,101674.94
2018-09-10T04:55:13.630Z,101681.06
2018-09-10T04:57:49.749Z,101676.15
2018-09-10T05:00:18.667Z,101679.23
2018-09-10T05:02:47.437Z,101667.10
2018-09-10T05:05:16.240Z,101677.37
2018-09-10T05:07:45.002Z,101679.58
2018-09-10T05:10:13.764Z,101682.66
2018-09-10T05:12:43.482Z,101681.31
2018-09-10T05:15:12.566Z,101675.44
2018-09-10T05:17:41.473Z,101683.88
2018-09-10T05:20:10.406Z,101679.84
2018-09-10T05:22:39.163Z,101673.96
2018-09-10T05:25:07.886Z,101672.52
2018-09-10T05:27:36.641Z,101669.82
2018-09-10T05:30:05.625Z,101669.82
2018-09-10T05:32:34.378Z,101677.91
2018-09-10T05:35:03.130Z,101680.60
2018-09-10T05:37:31.882Z,101685.86
2018-09-10T05:40:00.647Z,101685.38
2018-09-10T05:42:29.399Z,101693.81
2018-09-10T05:44:58.121Z,101689.42
2018-09-10T05:47:26.928Z,101689.91
2018-09-10T05:49:55.681Z,101685.73
2018-09-10T05:52:24.406Z,101676.30
2018-09-10T05:54:53.129Z,101671.42
2018-09-10T05:57:21.948Z,101669.55
2018-09-10T05:59:50.694Z,101669.94
2018-09-10T06:02:19.447Z,101665.90
2018-09-10T06:04:48.219Z,101662.72
2018-09-10T06:07:17.010Z,101654.98
2018-09-10T06:09:45.775Z,101650.45
2018-09-10T06:12:14.508Z,101650.45
2018-09-10T06:14:43.178Z,101652.19
2018-09-10T06:17:11.911Z,101652.19
2018-09-10T06:19:40.664Z,101649.48
2018-09-10T06:22:09.416Z,101652.19
2018-09-10T06:24:38.168Z,101649.02
2018-09-10T06:27:06.943Z,101639.58
2018-09-10T06:29:35.679Z,101643.63
2018-09-10T06:32:04.444Z,101639.06
2018-09-10T06:34:33.178Z,101641.27
2018-09-10T06:37:01.931Z,101645.80
2018-09-10T06:39:30.676Z,101642.63
2018-09-10T06:41:59.453Z,101646.66
2018-09-10T06:44:28.164Z,101640.30
2018-09-10T06:46:56.916Z,101642.14
2018-09-10T06:49:25.604Z,101645.22
2018-09-10T06:51:54.368Z,101646.05
2018-09-10T06:54:23.073Z,101639.31
2018-09-10T06:56:51.803Z,101644.60
2018-09-10T06:59:20.524Z,101639.55
2018-09-10T07:01:49.338Z,101638.21
2018-09-10T07:04:18.215Z,101633.20
2018-09-10T07:06:46.990Z,101632.23
2018-09-10T07:09:15.759Z,101621.45
2018-09-10T07:11:44.468Z,101627.70
2018-09-10T07:14:13.222Z,101633.45
2018-09-10T07:16:42.005Z,101624.02
2018-09-10T07:19:10.781Z,101623.08
2018-09-10T07:21:39.525Z,101619.91
2018-09-10T07:24:08.269Z,101610.08
2018-09-10T07:26:36.994Z,101607.25
2018-09-10T07:29:05.700Z,101601.28
2018-09-10T07:31:34.504Z,101594.02
2018-09-10T07:34:03.235Z,101596.72
2018-09-10T07:36:32.045Z,101595.75
2018-09-10T07:39:00.773Z,101591.22
2018-09-10T07:41:29.545Z,101581.30
2018-09-10T07:43:58.471Z,101584.48
2018-09-10T07:46:27.088Z,101585.70
2018-09-10T07:48:55.876Z,101581.65
2018-09-10T07:51:24.629Z,101582.13
2018-09-10T07:53:53.378Z,101578.95
2018-09-10T07:56:22.131Z,101585.70
2018-09-10T07:58:50.886Z,101580.30
2018-09-10T08:01:19.647Z,101566.09
2018-09-10T08:03:48.437Z,101566.48
2018-09-10T08:06:17.199Z,101563.27
2018-09-10T08:08:45.947Z,101558.38
2018-09-10T08:11:15.237Z,101557.87
2018-09-10T08:13:43.986Z,101551.27
2018-09-10T08:16:12.772Z,101548.56
2018-09-10T08:18:41.528Z,101552.13
2018-09-10T08:21:10.266Z,101556.17
2018-09-10T08:23:39.000Z,101556.66
2018-09-10T08:26:07.764Z,101560.70
2018-09-10T08:28:36.565Z,101555.80
2018-09-10T08:31:05.418Z,101554.45
2018-09-10T08:33:34.200Z,101557.14
2018-09-10T08:36:03.044Z,101562.53
2018-09-10T08:38:31.836Z,101555.31
2018-09-10T08:41:00.638Z,101549.91
2018-09-10T08:43:29.376Z,101549.91
2018-09-10T08:45:58.070Z,101548.95
2018-09-10T08:48:26.849Z,101547.60
2018-09-10T08:50:55.556Z,101548.56
2018-09-10T08:53:24.300Z,101553.83
2018-09-10T08:55:53.362Z,101548.56
2018-09-10T08:58:22.006Z,101547.22
2018-09-10T09:00:50.754Z,101545.01
2018-09-10T09:03:19.515Z,101542.80
2018-09-10T09:05:48.307Z,101546.84
2018-09-10T09:08:17.033Z,101538.41
2018-09-10T09:10:45.874Z,101540.23
2018-09-10T09:13:14.617Z,101537.16
2018-09-10T09:15:43.478Z,101541.09
2018-09-10T09:18:12.238Z,101532.63
2018-09-10T09:20:40.972Z,101536.19
2018-09-10T09:23:09.833Z,101537.05
2018-09-10T09:25:38.598Z,101529.94
2018-09-10T09:28:07.294Z,101523.68
2018-09-10T09:30:36.120Z,101527.23
2018-09-10T09:33:05.171Z,101516.11
2018-09-10T09:35:39.254Z,101518.29
2018-09-10T09:38:13.158Z,101516.94
2018-09-10T09:40:47.170Z,101515.73
2018-09-10T09:43:21.025Z,101509.44
2018-09-10T09:45:54.894Z,101514.83
2018-09-10T09:48:23.797Z,101506.88
2018-09-10T09:50:52.567Z,101504.05
2018-09-10T09:53:21.365Z,101504.19
2018-09-10T09:55:50.096Z,101507.23
2018-09-10T09:58:18.885Z,101499.66
2018-09-10T10:00:56.861Z,101487.01
2018-09-10T10:03:30.861Z,101481.61
2018-09-10T10:05:59.679Z,101478.57
2018-09-10T10:08:28.418Z,101476.36
2018-09-10T10:10:57.178Z,101472.70
2018-09-10T10:13:25.892Z,101468.14
2018-09-10T10:15:55.267Z,101468.14
2018-09-10T10:18:23.982Z,101457.88
2018-09-10T10:20:52.731Z,101457.88
2018-09-10T10:23:21.690Z,101452.97
2018-09-10T10:25:50.511Z,101448.44
2018-09-10T10:28:19.240Z,101446.22
2018-09-10T10:30:48.065Z,101440.83
2018-09-10T10:33:16.787Z,101432.75
2018-09-10T10:35:45.530Z,101432.85
2018-09-10T10:38:14.261Z,101431.02
2018-09-10T10:40:43.013Z,101426.97
2018-09-10T10:43:11.812Z,101423.41
2018-09-10T10:45:40.587Z,101416.67
2018-09-10T10:48:09.336Z,101423.06
2018-09-10T10:50:38.152Z,101425.25
2018-09-10T10:53:06.930Z,101424.91
2018-09-10T10:55:36.730Z,101414.12
2018-09-10T10:58:05.909Z,101424.04
2018-09-10T11:00:34.669Z,101412.39
2018-09-10T11:03:03.741Z,101415.09
2018-09-10T11:05:32.538Z,101408.00
2018-09-10T11:08:01.283Z,101404.30
2018-09-10T11:10:30.023Z,101397.22
2018-09-10T11:12:58.752Z,101399.91
2018-09-10T11:15:27.480Z,101399.53
2018-09-10T11:17:56.273Z,101392.42
2018-09-10T11:20:25.058Z,101390.24
2018-09-10T11:22:53.796Z,101392.94
2018-09-10T11:25:22.567Z,101390.73
2018-09-10T11:27:51.533Z,101379.94
2018-09-10T11:30:20.266Z,101380.43
2018-09-10T11:32:49.060Z,101380.56
2018-09-10T11:35:17.746Z,101378.70
2018-09-10T11:37:46.469Z,101373.83
2018-09-10T11:40:15.306Z,101365.36
2018-09-10T11:42:44.063Z,101366.71
2018-09-10T11:45:12.854Z,101365.36
2018-09-10T11:47:41.555Z,101361.70
2018-09-10T11:50:10.267Z,101355.07
2018-09-10T11:52:39.015Z,101355.07
2018-09-10T11:55:07.806Z,101349.68
2018-09-10T11:57:36.643Z,101346.64
2018-09-10T12:00:05.679Z,101355.07
2018-09-10T12:02:34.400Z,101354.20
2018-09-10T12:05:03.179Z,101349.68
2018-09-10T12:07:31.970Z,101351.51
2018-09-10T12:10:00.715Z,101343.80
2018-09-10T12:12:29.429Z,101351.17
2018-09-10T12:14:58.262Z,101343.08
2018-09-10T12:17:27.210Z,101346.13
2018-09-10T12:19:56.016Z,101347.98
2018-09-10T12:22:24.961Z,101341.25
2018-09-10T12:24:53.697Z,101345.29
2018-09-10T12:27:22.462Z,101342.22
2018-09-10T12:29:51.223Z,101348.47
2018-09-10T12:32:20.078Z,101344.05
2018-09-10T12:34:48.809Z,101340.01
2018-09-10T12:37:17.513Z,101338.66
2018-09-10T12:39:46.318Z,101339.03
2018-09-10T12:42:14.986Z,101332.41
2018-09-10T12:44:43.786Z,101326.19
2018-09-10T12:47:12.483Z,101325.67
2018-09-10T12:49:41.167Z,101316.75
2018-09-10T12:52:09.881Z,101306.80
2018-09-10T12:54:38.602Z,101299.72
2018-09-10T12:57:07.453Z,101307.05
2018-09-10T12:59:36.301Z,101303.01
2018-09-10T13:02:05.095Z,101308.40
2018-09-10T13:04:33.838Z,101304.02
2018-09-10T13:07:04.014Z,101306.22
2018-09-10T13:09:32.774Z,101301.80
2018-09-10T13:12:01.661Z,101303.15
2018-09-10T13:14:30.399Z,101298.38
2018-09-10T13:16:59.103Z,101301.08
2018-09-10T13:19:27.818Z,101295.69
2018-09-10T13:21:56.558Z,101299.73
2018-09-10T13:24:25.289Z,101292.61
2018-09-10T13:26:54.237Z,101291.27
2018-09-10T13:29:22.946Z,101285.02
2018-09-10T13:31:51.681Z,101278.28
2018-09-10T13:34:20.416Z,101275.23
2018-09-10T13:36:49.111Z,101268.99
2018-09-10T13:39:17.866Z,101264.56
2018-09-10T13:41:46.619Z,101273.03
2018-09-10T13:44:15.316Z,101269.95
2018-09-10T13:46:44.061Z,101267.78
2018-09-10T13:49:12.763Z,101266.92
2018-09-10T13:51:41.501Z,101269.72
2018-09-10T13:54:10.254Z,101266.55
2018-09-10T13:56:38.920Z,101267.03
2018-09-10T13:59:07.967Z,101265.20
2018-09-10T14:01:36.726Z,101263.98
2018-09-10T14:04:05.952Z,101259.95
2018-09-10T14:06:34.626Z,101263.98
2018-09-10T14:09:03.463Z,101273.05
2018-09-10T14:11:32.190Z,101275.73
2018-09-10T14:14:00.937Z,101275.39
2018-09-10T14:16:29.618Z,101275.88
2018-09-10T14:18:58.398Z,101275.50
2018-09-10T14:21:27.100Z,101272.32
2018-09-10T14:23:55.890Z,101275.50
2018-09-10T14:26:24.649Z,101281.75
2018-09-10T14:28:53.351Z,101275.88
2018-09-10T14:31:22.043Z,101279.91
2018-09-10T14:33:50.780Z,101268.28
2018-09-10T14:36:19.547Z,101272.70
2018-09-10T14:38:48.325Z,101264.23
2018-09-10T14:41:17.040Z,101270.11
2018-09-10T14:43:45.801Z,101265.58
2018-09-10T14:46:15.471Z,101253.45
2018-09-10T14:48:44.148Z,101260.58
2018-09-10T14:51:12.894Z,101257.50
2018-09-10T14:53:41.643Z,101240.85
2018-09-10T14:56:10.388Z,101238.16
2018-09-10T14:58:39.169Z,101236.43
2018-09-10T15:01:07.876Z,101223.83
2018-09-10T15:03:36.632Z,101217.09
2018-09-10T15:06:05.529Z,101211.70
2018-09-10T15:08:34.277Z,101202.75
2018-09-10T15:11:03.003Z,101201.41
2018-09-10T15:13:31.758Z,101205.45
2018-09-10T15:16:00.488Z,101197.36
2018-09-10T15:18:29.394Z,101191.59
2018-09-10T15:20:58.084Z,101192.46
2018-09-10T15:23:26.888Z,101185.38
2018-09-10T15:25:55.638Z,101180.83
2018-09-10T15:28:24.494Z,101183.52
2018-09-10T15:30:53.259Z,101182.69
2018-09-10T15:33:21.971Z,101176.44
2018-09-10T15:35:50.668Z,101183.17
2018-09-10T15:38:19.411Z,101188.56
2018-09-10T15:40:48.283Z,101189.91
2018-09-10T15:43:17.062Z,101193.95
2018-09-10T15:45:45.757Z,101196.27
2018-09-10T15:48:14.534Z,101198.96
2018-09-10T15:50:43.298Z,101197.27
2018-09-10T15:53:12.088Z,101206.70
2018-09-10T15:55:40.856Z,101211.22
2018-09-10T15:58:09.633Z,101213.92
2018-09-10T16:00:38.375Z,101222.48
2018-09-10T16:03:07.199Z,101231.54
2018-09-10T16:05:35.921Z,101234.23
2018-09-10T16:08:04.649Z,101217.72
2018-09-10T16:10:33.477Z,101211.85
2018-09-10T16:13:02.221Z,101201.08
2018-09-10T16:15:31.083Z,101201.19
2018-09-10T16:17:59.808Z,101191.76
2018-09-10T16:20:28.576Z,101200.84
2018-09-10T16:22:57.360Z,101201.19
2018-09-10T16:25:26.143Z,101200.47
2018-09-10T16:27:54.873Z,101205.85
2018-09-10T16:30:23.689Z,101202.30
2018-09-10T16:32:52.516Z,101206.82
2018-09-10T16:35:21.225Z,101197.91
2018-09-10T16:37:50.149Z,101196.56
2018-09-10T16:40:19.114Z,101197.05
2018-09-10T16:42:47.853Z,101201.58
2018-09-10T16:45:16.655Z,101195.33
2018-09-10T16:47:45.378Z,101190.42
2018-09-10T16:50:14.174Z,101183.58
2018-09-10T16:52:42.913Z,101202.44
2018-09-10T16:55:11.660Z,101202.44
2018-09-10T16:57:40.423Z,101201.09
2018-09-10T17:00:09.223Z,101195.70
2018-09-10T17:02:38.201Z,101192.15
2018-09-10T17:05:07.079Z,101189.94
2018-09-10T17:07:36.029Z,101186.27
2018-09-10T17:10:04.899Z,101185.41
2018-09-10T17:12:33.759Z,101188.11
2018-09-10T17:15:02.750Z,101192.52
2018-09-10T17:17:31.415Z,101196.05
2018-09-10T17:20:00.212Z,101203.64
2018-09-10T17:22:28.999Z,101203.30
2018-09-10T17:24:57.772Z,101204.64
2018-09-10T17:27:26.483Z,101208.69
2018-09-10T17:29:55.212Z,101208.17
2018-09-10T17:32:23.968Z,101204.64
2018-09-10T17:34:52.722Z,101208.17
2018-09-10T17:37:21.521Z,101214.08
2018-09-10T17:39:50.384Z,101210.37
2018-09-10T17:42:19.204Z,101213.94
2018-09-10T17:44:48.003Z,101218.11
2018-09-10T17:47:16.928Z,101205.99
2018-09-10T17:49:45.547Z,101206.34
2018-09-10T17:52:14.287Z,101205.48
2018-09-10T17:54:43.064Z,101204.13
2018-09-10T17:57:11.778Z,101210.86
2018-09-10T17:59:40.508Z,101217.48
2018-09-10T18:02:09.222Z,101220.66
2018-09-10T18:04:37.995Z,101220.81
2018-09-10T18:07:06.813Z,101213.21
2018-09-10T18:09:35.573Z,101208.69
2018-09-10T18:12:05.056Z,101208.80
2018-09-10T18:14:33.802Z,101209.66
2018-09-10T18:17:02.999Z,101207.93
2018-09-10T18:19:31.738Z,101211.97
2018-09-10T18:22:00.458Z,101218.70
2018-09-10T18:24:29.216Z,101225.95
2018-09-10T18:26:58.037Z,101223.75
2018-09-10T18:29:26.707Z,101223.86
2018-09-10T18:31:55.577Z,101232.80
2018-09-10T18:34:24.308Z,101230.25
2018-09-10T18:36:53.046Z,101232.08
2018-09-10T18:39:21.796Z,101234.28
2018-09-10T18:41:50.601Z,101232.56
2018-09-10T18:44:19.449Z,101231.21
2018-09-10T18:46:48.164Z,101234.88
2018-09-10T18:49:17.024Z,101234.05
2018-09-10T18:51:45.709Z,101242.12
2018-09-10T18:54:14.442Z,101242.61
2018-09-10T18:56:43.222Z,101248.00
2018-09-10T18:59:12.065Z,101242.23
2018-09-10T19:01:40.875Z,101248.11
2018-09-10T19:04:09.628Z,101244.92
2018-09-10T19:06:38.431Z,101244.92
2018-09-10T19:09:09.618Z,101244.58
2018-09-10T19:11:38.523Z,101244.58
2018-09-10T19:14:07.396Z,101242.86
2018-09-10T19:16:36.345Z,101248.62
2018-09-10T19:19:05.331Z,101245.55
2018-09-10T19:21:34.134Z,101244.58
2018-09-10T19:24:03.332Z,101246.03
2018-09-10T19:26:32.090Z,101247.76
2018-09-10T19:29:00.923Z,101241.02
2018-09-10T19:31:29.743Z,101241.02
2018-09-10T19:33:58.523Z,101243.23
2018-09-10T19:36:27.327Z,101244.58
2018-09-10T19:38:56.048Z,101238.81
2018-09-10T19:41:24.770Z,101241.02
2018-09-10T19:43:53.546Z,101236.13
2018-09-10T19:46:22.243Z,101232.95
2018-09-10T19:48:50.976Z,101229.39
2018-09-10T19:51:20.018Z,101229.39
2018-09-10T19:53:48.792Z,101224.48
2018-09-10T19:56:17.516Z,101230.25
2018-09-10T19:58:46.250Z,101223.52
2018-09-10T20:01:15.035Z,101224.48
2018-09-10T20:03:43.788Z,101219.97
2018-09-10T20:06:12.574Z,101228.42
2018-09-10T20:08:41.307Z,101216.79
2018-09-10T20:11:10.148Z,101222.17
2018-09-10T20:13:39.066Z,101223.86
2018-09-10T20:16:07.872Z,101218.48
2018-09-10T20:18:36.955Z,101219.34
2018-09-10T20:21:05.939Z,101221.06
2018-09-10T20:23:34.670Z,101224.10
2018-09-10T20:26:03.688Z,101225.83
2018-09-10T20:28:32.530Z,101229.38
2018-09-10T20:31:02.577Z,101204.06
2018-09-10T20:33:35.471Z,101232.31
2018-09-10T20:36:04.438Z,101226.92
2018-09-10T20:38:33.237Z,101236.73
2018-09-10T20:41:02.020Z,101236.22
2018-09-10T20:43:31.317Z,101241.50
2018-09-10T20:46:00.092Z,101246.88
2018-09-10T20:48:28.819Z,101245.88
2018-09-10T20:50:58.383Z,101255.06
2018-09-10T20:53:27.725Z,101252.37
2018-09-10T20:55:56.489Z,101252.37
2018-09-10T20:58:25.308Z,101251.40
2018-09-10T21:00:54.056Z,101253.09
2018-09-10T21:03:22.828Z,101257.99
2018-09-10T21:05:51.876Z,101262.41
2018-09-10T21:08:20.669Z,101257.02
2018-09-10T21:10:50.145Z,101252.50
2018-09-10T21:13:18.891Z,101252.98
2018-09-10T21:15:47.602Z,101258.23
2018-09-10T21:18:16.296Z,101257.75
2018-09-10T21:20:45.073Z,101250.53
2018-09-10T21:23:13.735Z,101246.83
2018-09-10T21:25:42.583Z,101238.27
2018-09-10T21:28:11.356Z,101235.22
2018-09-10T21:30:40.081Z,101238.75
2018-09-10T21:33:08.799Z,101230.66
2018-09-10T21:35:37.595Z,101230.66
2018-09-10T21:38:06.436Z,101223.93
2018-09-10T21:40:35.194Z,101225.66
2018-09-10T21:43:04.169Z,101224.45
2018-09-10T21:45:32.997Z,101222.23
2018-09-10T21:48:01.700Z,101230.32
2018-09-10T21:50:30.642Z,101229.84
2018-09-10T21:52:59.554Z,101233.98
2018-09-10T21:55:28.623Z,101236.68
2018-09-10T21:57:57.345Z,101237.16
2018-09-10T22:00:26.108Z,101235.81
2018-09-10T22:03:11.090Z,101232.30
2018-09-10T22:05:39.910Z,101230.57
2018-09-10T22:08:08.726Z,101229.70
2018-09-10T22:10:37.639Z,101228.84
2018-09-10T22:13:06.385Z,101232.41
2018-09-10T22:15:35.169Z,101234.75
2018-09-10T22:18:03.989Z,101227.64
2018-09-10T22:20:32.720Z,101229.47
2018-09-10T22:23:01.513Z,101223.22
2018-09-10T22:25:30.202Z,101226.43
2018-09-10T22:27:59.082Z,101226.54
2018-09-10T22:30:27.799Z,101235.00
2018-09-10T22:32:56.517Z,101230.23
2018-09-10T22:35:25.272Z,101229.86
2018-09-10T22:37:54.002Z,101226.30
2018-09-10T22:40:22.769Z,101235.73
2018-09-10T22:42:51.542Z,101230.97
2018-09-10T22:45:20.609Z,101231.94
2018-09-10T22:47:49.393Z,101228.76
2018-09-10T22:50:18.090Z,101218.23
2018-09-10T22:52:46.795Z,101229.48
2018-09-10T22:55:15.567Z,101231.35
2018-09-10T22:57:44.243Z,101225.11
2018-09-10T23:00:12.930Z,101230.97
2018-09-10T23:02:41.686Z,101229.25
2018-09-10T23:05:10.398Z,101227.08
2018-09-10T23:07:39.126Z,101224.00
2018-09-10T23:10:07.921Z,101229.87
2018-09-10T23:12:36.613Z,101226.84
2018-09-10T23:15:05.867Z,101227.32
2018-09-10T23:17:34.604Z,101221.56
2018-09-10T23:20:03.299Z,101218.52
2018-09-10T23:22:31.966Z,101212.27
2018-09-10T23:25:00.629Z,101209.20
2018-09-10T23:27:29.454Z,101209.69
2018-09-10T23:29:58.259Z,101212.38
2018-09-10T23:32:26.938Z,101207.99
2018-09-10T23:34:55.630Z,101217.52
2018-09-10T23:37:24.319Z,101217.52
2018-09-10T23:39:53.056Z,101218.01
2018-09-10T23:42:21.962Z,101225.60
2018-09-10T23:44:51.010Z,101230.64
2018-09-10T23:47:19.870Z,101225.74
2018-09-10T23:49:48.537Z,101231.98
2018-09-10T23:52:17.346Z,101233.44
2018-09-10T23:54:46.074Z,101242.77
2018-09-10T23:57:14.753Z,101237.48
2018-09-10T23:59:43.432Z,101235.66
